sensor_id;sensor_type;location;lat;lon;timestamp;pressure;altitude;pressure_sealevel;temperature;humidity
12247;BME280;6186;52.022;4.692;2023-06-01T00:00:57;102527.19;;;14.70;73.05
12247;BME280;6186;52.022;4.692;2023-06-01T00:03:22;102521.00;;;14.69;73.28
12247;BME280;6186;52.022;4.692;2023-06-01T00:05:48;102523.66;;;14.69;73.18
12247;BME280;6186;52.022;4.692;2023-06-01T00:08:13;102529.91;;;14.65;73.20
12247;BME280;6186;52.022;4.692;2023-06-01T00:10:38;102525.53;;;14.61;73.21
12247;BME280;6186;52.022;4.692;2023-06-01T00:13:03;102527.34;;;14.61;73.41
12247;BME280;6186;52.022;4.692;2023-06-01T00:15:29;102520.31;;;14.58;73.39
12247;BME280;6186;52.022;4.692;2023-06-01T00:17:54;102524.78;;;14.55;73.50
12247;BME280;6186;52.022;4.692;2023-06-01T00:20:19;102519.50;;;14.53;73.60
12247;BME280;6186;52.022;4.692;2023-06-01T00:22:44;102519.50;;;14.52;73.71
12247;BME280;6186;52.022;4.692;2023-06-01T00:25:09;102521.31;;;14.51;73.80
12247;BME280;6186;52.022;4.692;2023-06-01T00:27:35;102516.84;;;14.52;73.96
12247;BME280;6186;52.022;4.692;2023-06-01T00:30:00;102515.13;;;14.51;73.92
12247;BME280;6186;52.022;4.692;2023-06-01T00:32:26;102520.41;;;14.51;73.86
12247;BME280;6186;52.022;4.692;2023-06-01T00:34:51;102502.06;;;14.37;73.82
12247;BME280;6186;52.022;4.692;2023-06-01T00:37:16;102517.84;;;14.45;74.16
12247;BME280;6186;52.022;4.692;2023-06-01T00:39:41;102522.31;;;14.41;74.25
12247;BME280;6186;52.022;4.692;2023-06-01T00:42:07;102517.03;;;14.41;74.25
12247;BME280;6186;52.022;4.692;2023-06-01T00:44:32;102509.13;;;14.38;74.28
12247;BME280;6186;52.022;4.692;2023-06-01T00:46:58;102503.81;;;14.37;74.20
12247;BME280;6186;52.022;4.692;2023-06-01T00:49:23;102506.50;;;14.35;74.45
12247;BME280;6186;52.022;4.692;2023-06-01T00:51:48;102512.72;;;14.34;74.40
12247;BME280;6186;52.022;4.692;2023-06-01T00:54:14;102510.97;;;14.32;74.66
12247;BME280;6186;52.022;4.692;2023-06-01T00:56:39;102518.91;;;14.32;74.75
12247;BME280;6186;52.022;4.692;2023-06-01T00:59:05;102524.22;;;14.32;74.93
12247;BME280;6186;52.022;4.692;2023-06-01T01:01:30;102524.22;;;14.32;75.02
12247;BME280;6186;52.022;4.692;2023-06-01T01:03:55;102518.00;;;14.34;75.27
12247;BME280;6186;52.022;4.692;2023-06-01T01:06:45;102518.03;;;14.31;75.32
12247;BME280;6186;52.022;4.692;2023-06-01T01:09:23;102507.53;;;14.22;75.48
12247;BME280;6186;52.022;4.692;2023-06-01T01:11:59;102519.88;;;14.25;75.43
12247;BME280;6186;52.022;4.692;2023-06-01T01:14:32;102512.78;;;14.25;75.63
12247;BME280;6186;52.022;4.692;2023-06-01T01:19:53;102516.34;;;14.24;75.99
12247;BME280;6186;52.022;4.692;2023-06-01T01:22:32;102511.09;;;14.21;76.08
12247;BME280;6186;52.022;4.692;2023-06-01T01:28:40;102511.94;;;14.25;76.24
12247;BME280;6186;52.022;4.692;2023-06-01T01:30:41;102501.38;;;14.20;76.35
12247;BME280;6186;52.022;4.692;2023-06-01T01:33:07;102506.66;;;14.23;76.32
12247;BME280;6186;52.022;4.692;2023-06-01T01:35:34;102505.81;;;14.18;76.38
12247;BME280;6186;52.022;4.692;2023-06-01T01:38:00;102513.75;;;14.19;76.63
12247;BME280;6186;52.022;4.692;2023-06-01T01:40:25;102507.59;;;14.19;76.83
12247;BME280;6186;52.022;4.692;2023-06-01T01:42:52;102512.91;;;14.19;76.78
12247;BME280;6186;52.022;4.692;2023-06-01T01:45:19;102506.75;;;14.14;76.97
12247;BME280;6186;52.022;4.692;2023-06-01T01:47:59;102520.06;;;14.11;76.72
12247;BME280;6186;52.022;4.692;2023-06-01T01:50:34;102518.31;;;14.08;76.71
12247;BME280;6186;52.022;4.692;2023-06-01T01:53:02;102514.81;;;14.06;77.14
12247;BME280;6186;52.022;4.692;2023-06-01T01:55:29;102511.25;;;14.09;77.18
12247;BME280;6186;52.022;4.692;2023-06-01T01:57:55;102516.50;;;14.12;77.48
12247;BME280;6186;52.022;4.692;2023-06-01T02:00:22;102512.97;;;14.13;77.57
12247;BME280;6186;52.022;4.692;2023-06-01T02:02:47;102510.34;;;14.10;77.35
12247;BME280;6186;52.022;4.692;2023-06-01T02:05:13;102505.94;;;14.09;77.47
12247;BME280;6186;52.022;4.692;2023-06-01T02:07:38;102499.81;;;14.07;77.57
12247;BME280;6186;52.022;4.692;2023-06-01T02:10:03;102502.50;;;14.04;77.68
12247;BME280;6186;52.022;4.692;2023-06-01T02:12:29;102506.03;;;14.03;77.59
12247;BME280;6186;52.022;4.692;2023-06-01T02:14:54;102495.50;;;13.98;77.53
12247;BME280;6186;52.022;4.692;2023-06-01T02:17:19;102504.34;;;13.96;77.55
12247;BME280;6186;52.022;4.692;2023-06-01T02:19:44;102497.28;;;13.95;77.81
12247;BME280;6186;52.022;4.692;2023-06-01T02:22:10;102498.19;;;13.95;78.02
12247;BME280;6186;52.022;4.692;2023-06-01T02:24:35;102492.06;;;13.92;78.03
12247;BME280;6186;52.022;4.692;2023-06-01T02:27:00;102490.28;;;13.92;78.13
12247;BME280;6186;52.022;4.692;2023-06-01T02:29:25;102489.38;;;13.93;78.43
12247;BME280;6186;52.022;4.692;2023-06-01T02:31:51;102488.50;;;13.93;78.37
12247;BME280;6186;52.022;4.692;2023-06-01T02:34:17;102493.84;;;13.90;78.40
12247;BME280;6186;52.022;4.692;2023-06-01T02:36:42;102490.34;;;13.88;78.27
12247;BME280;6186;52.022;4.692;2023-06-01T02:39:07;102487.66;;;13.89;78.62
12247;BME280;6186;52.022;4.692;2023-06-01T02:41:32;102485.91;;;13.90;78.65
12247;BME280;6186;52.022;4.692;2023-06-01T02:43:58;102486.75;;;13.92;78.70
12247;BME280;6186;52.022;4.692;2023-06-01T02:46:23;102491.16;;;13.91;78.82
12247;BME280;6186;52.022;4.692;2023-06-01T02:48:48;102485.94;;;13.87;78.69
12247;BME280;6186;52.022;4.692;2023-06-01T02:51:14;102485.97;;;13.84;78.72
12247;BME280;6186;52.022;4.692;2023-06-01T02:53:39;102491.34;;;13.78;78.74
12247;BME280;6186;52.022;4.692;2023-06-01T02:56:05;102481.69;;;13.72;78.72
12247;BME280;6186;52.022;4.692;2023-06-01T02:58:30;102491.34;;;13.76;79.14
12247;BME280;6186;52.022;4.692;2023-06-01T03:00:55;102480.78;;;13.76;79.17
12247;BME280;6186;52.022;4.692;2023-06-01T03:03:21;102480.78;;;13.75;79.27
12247;BME280;6186;52.022;4.692;2023-06-01T03:05:46;102483.38;;;13.78;79.39
12247;BME280;6186;52.022;4.692;2023-06-01T03:08:11;102486.94;;;13.77;79.52
12247;BME280;6186;52.022;4.692;2023-06-01T03:10:36;102483.47;;;13.73;79.56
12247;BME280;6186;52.022;4.692;2023-06-01T03:13:02;102480.84;;;13.72;79.68
12247;BME280;6186;52.022;4.692;2023-06-01T03:15:27;102483.50;;;13.72;79.73
12247;BME280;6186;52.022;4.692;2023-06-01T03:17:53;102481.78;;;13.68;79.84
12247;BME280;6186;52.022;4.692;2023-06-01T03:20:18;102477.38;;;13.65;79.97
12247;BME280;6186;52.022;4.692;2023-06-01T03:22:44;102481.78;;;13.68;80.00
12247;BME280;6186;52.022;4.692;2023-06-01T03:25:10;102487.03;;;13.69;80.11
12247;BME280;6186;52.022;4.692;2023-06-01T03:27:35;102484.44;;;13.66;80.35
12247;BME280;6186;52.022;4.692;2023-06-01T03:30:00;102489.78;;;13.62;80.20
12247;BME280;6186;52.022;4.692;2023-06-01T03:32:26;102487.19;;;13.59;80.36
12247;BME280;6186;52.022;4.692;2023-06-01T03:34:51;102482.75;;;13.58;80.79
12247;BME280;6186;52.022;4.692;2023-06-01T03:37:16;102488.88;;;13.61;80.93
12247;BME280;6186;52.022;4.692;2023-06-01T03:39:41;102486.25;;;13.61;80.98
12247;BME280;6186;52.022;4.692;2023-06-01T03:42:07;102496.75;;;13.67;81.17
12247;BME280;6186;52.022;4.692;2023-06-01T03:44:33;102501.16;;;13.70;81.28
12247;BME280;6186;52.022;4.692;2023-06-01T03:46:58;102494.94;;;13.72;81.43
12247;BME280;6186;52.022;4.692;2023-06-01T03:49:23;102487.97;;;13.65;81.54
12247;BME280;6186;52.022;4.692;2023-06-01T03:51:48;102497.63;;;13.69;81.63
12247;BME280;6186;52.022;4.692;2023-06-01T03:54:14;102497.56;;;13.72;81.80
12247;BME280;6186;52.022;4.692;2023-06-01T03:56:39;102497.59;;;13.71;81.79
12247;BME280;6186;52.022;4.692;2023-06-01T03:59:04;102494.06;;;13.72;81.92
12247;BME280;6186;52.022;4.692;2023-06-01T04:01:29;102489.66;;;13.71;82.13
12247;BME280;6186;52.022;4.692;2023-06-01T04:03:55;102494.94;;;13.74;82.15
12247;BME280;6186;52.022;4.692;2023-06-01T04:06:20;102494.94;;;13.74;82.35
12247;BME280;6186;52.022;4.692;2023-06-01T04:08:46;102501.09;;;13.73;82.32
12247;BME280;6186;52.022;4.692;2023-06-01T04:11:11;102492.31;;;13.71;82.32
12247;BME280;6186;52.022;4.692;2023-06-01T04:13:36;102502.88;;;13.71;82.60
12247;BME280;6186;52.022;4.692;2023-06-01T04:16:02;102496.72;;;13.70;82.52
12247;BME280;6186;52.022;4.692;2023-06-01T04:18:27;102496.75;;;13.69;82.53
12247;BME280;6186;52.022;4.692;2023-06-01T04:20:52;102489.72;;;13.68;82.75
12247;BME280;6186;52.022;4.692;2023-06-01T04:23:17;102488.84;;;13.66;82.81
12247;BME280;6186;52.022;4.692;2023-06-01T04:25:43;102488.84;;;13.66;82.92
12247;BME280;6186;52.022;4.692;2023-06-01T04:28:08;102490.56;;;13.68;83.17
12247;BME280;6186;52.022;4.692;2023-06-01T04:30:33;102487.00;;;13.71;83.34
12247;BME280;6186;52.022;4.692;2023-06-01T04:32:58;102491.41;;;13.70;83.37
12247;BME280;6186;52.022;4.692;2023-06-01T04:35:23;102494.91;;;13.75;83.47
12247;BME280;6186;52.022;4.692;2023-06-01T04:37:49;102492.25;;;13.77;83.62
12247;BME280;6186;52.022;4.692;2023-06-01T04:40:14;102485.25;;;13.71;83.74
12247;BME280;6186;52.022;4.692;2023-06-01T04:42:41;102496.66;;;13.76;83.61
12247;BME280;6186;52.022;4.692;2023-06-01T04:45:10;102492.25;;;13.77;83.89
12247;BME280;6186;52.022;4.692;2023-06-01T04:47:35;102494.88;;;13.77;84.06
12247;BME280;6186;52.022;4.692;2023-06-01T04:50:01;102493.97;;;13.78;84.19
12247;BME280;6186;52.022;4.692;2023-06-01T04:52:26;102505.41;;;13.80;84.24
12247;BME280;6186;52.022;4.692;2023-06-01T04:54:51;102497.47;;;13.83;84.59
12247;BME280;6186;52.022;4.692;2023-06-01T04:57:16;102497.44;;;13.84;84.68
12247;BME280;6186;52.022;4.692;2023-06-01T04:59:42;102501.81;;;13.85;84.65
12247;BME280;6186;52.022;4.692;2023-06-01T05:02:07;102511.56;;;13.85;84.66
12247;BME280;6186;52.022;4.692;2023-06-01T05:04:32;102503.63;;;13.85;84.82
12247;BME280;6186;52.022;4.692;2023-06-01T05:06:58;102508.03;;;13.84;84.91
12247;BME280;6186;52.022;4.692;2023-06-01T05:09:23;102504.50;;;13.84;85.02
12247;BME280;6186;52.022;4.692;2023-06-01T05:11:48;102500.97;;;13.85;85.13
12247;BME280;6186;52.022;4.692;2023-06-01T05:14:13;102508.00;;;13.86;85.25
12247;BME280;6186;52.022;4.692;2023-06-01T05:16:39;102508.88;;;13.88;85.49
12247;BME280;6186;52.022;4.692;2023-06-01T05:19:04;102508.88;;;13.88;85.47
12247;BME280;6186;52.022;4.692;2023-06-01T05:21:29;102504.47;;;13.87;85.87
12247;BME280;6186;52.022;4.692;2023-06-01T05:23:54;102507.06;;;13.91;85.66
12247;BME280;6186;52.022;4.692;2023-06-01T05:26:19;102507.03;;;13.94;86.06
12247;BME280;6186;52.022;4.692;2023-06-01T05:28:45;102504.34;;;13.96;86.24
12247;BME280;6186;52.022;4.692;2023-06-01T05:31:10;102505.25;;;13.93;86.17
12247;BME280;6186;52.022;4.692;2023-06-01T05:33:35;102510.50;;;13.99;86.36
12247;BME280;6186;52.022;4.692;2023-06-01T05:36:00;102509.59;;;13.99;86.34
12247;BME280;6186;52.022;4.692;2023-06-01T05:38:26;102504.38;;;13.93;86.24
12247;BME280;6186;52.022;4.692;2023-06-01T05:40:51;102505.34;;;13.89;86.34
12247;BME280;6186;52.022;4.692;2023-06-01T05:43:16;102508.84;;;13.91;86.53
12247;BME280;6186;52.022;4.692;2023-06-01T05:45:41;102505.28;;;13.92;86.76
12247;BME280;6186;52.022;4.692;2023-06-01T05:48:07;102507.88;;;13.95;86.98
12247;BME280;6186;52.022;4.692;2023-06-01T05:50:32;102506.97;;;13.97;87.26
12247;BME280;6186;52.022;4.692;2023-06-01T05:52:57;102514.94;;;13.96;87.16
12247;BME280;6186;52.022;4.692;2023-06-01T05:55:22;102511.44;;;13.94;87.30
12247;BME280;6186;52.022;4.692;2023-06-01T05:57:48;102515.81;;;13.95;87.50
12247;BME280;6186;52.022;4.692;2023-06-01T06:00:13;102510.56;;;13.93;87.50
12247;BME280;6186;52.022;4.692;2023-06-01T06:02:39;102519.38;;;13.94;87.64
12247;BME280;6186;52.022;4.692;2023-06-01T06:05:05;102512.31;;;13.93;87.84
12247;BME280;6186;52.022;4.692;2023-06-01T06:07:31;102521.97;;;13.97;88.36
12247;BME280;6186;52.022;4.692;2023-06-01T06:09:56;102507.84;;;13.99;88.58
12247;BME280;6186;52.022;4.692;2023-06-01T06:12:22;102507.78;;;14.04;88.70
12247;BME280;6186;52.022;4.692;2023-06-01T06:14:47;102511.25;;;14.09;88.69
12247;BME280;6186;52.022;4.692;2023-06-01T06:17:12;102517.41;;;14.11;88.94
12247;BME280;6186;52.022;4.692;2023-06-01T06:19:37;102506.81;;;14.11;89.15
12247;BME280;6186;52.022;4.692;2023-06-01T06:22:03;102511.97;;;14.20;89.31
12247;BME280;6186;52.022;4.692;2023-06-01T06:24:28;102513.69;;;14.24;89.47
12247;BME280;6186;52.022;4.692;2023-06-01T06:26:54;102509.22;;;14.29;89.69
12247;BME280;6186;52.022;4.692;2023-06-01T06:29:19;102504.75;;;14.36;89.97
12247;BME280;6186;52.022;4.692;2023-06-01T06:31:44;102516.16;;;14.39;89.95
12247;BME280;6186;52.022;4.692;2023-06-01T06:34:11;102513.47;;;14.44;90.23
12247;BME280;6186;52.022;4.692;2023-06-01T06:36:37;102503.69;;;14.47;90.36
12247;BME280;6186;52.022;4.692;2023-06-01T06:39:02;102500.09;;;14.51;90.40
12247;BME280;6186;52.022;4.692;2023-06-01T06:41:27;102508.91;;;14.53;90.55
12247;BME280;6186;52.022;4.692;2023-06-01T06:43:52;102515.94;;;14.54;90.63
12247;BME280;6186;52.022;4.692;2023-06-01T06:46:18;102510.59;;;14.57;90.73
12247;BME280;6186;52.022;4.692;2023-06-01T06:48:43;102511.44;;;14.59;90.90
12247;BME280;6186;52.022;4.692;2023-06-01T06:51:08;102513.19;;;14.62;90.84
12247;BME280;6186;52.022;4.692;2023-06-01T06:53:33;102518.47;;;14.62;90.82
12247;BME280;6186;52.022;4.692;2023-06-01T06:55:59;102516.72;;;14.62;91.09
12247;BME280;6186;52.022;4.692;2023-06-01T06:58:24;102514.91;;;14.64;91.18
12247;BME280;6186;52.022;4.692;2023-06-01T07:00:49;102522.88;;;14.64;91.42
12247;BME280;6186;52.022;4.692;2023-06-01T07:03:14;102517.59;;;14.61;91.41
12247;BME280;6186;52.022;4.692;2023-06-01T07:05:40;102526.38;;;14.66;91.71
12247;BME280;6186;52.022;4.692;2023-06-01T07:08:05;102529.81;;;14.71;92.08
12247;BME280;6186;52.022;4.692;2023-06-01T07:10:30;102532.38;;;14.77;92.40
12247;BME280;6186;52.022;4.692;2023-06-01T07:12:55;102524.28;;;14.86;92.89
12247;BME280;6186;52.022;4.692;2023-06-01T07:15:21;102515.31;;;14.93;93.20
12247;BME280;6186;52.022;4.692;2023-06-01T07:17:46;102527.47;;;15.06;93.36
12247;BME280;6186;52.022;4.692;2023-06-01T07:20:11;102524.78;;;15.09;93.21
12247;BME280;6186;52.022;4.692;2023-06-01T07:22:38;102526.56;;;15.09;92.94
12247;BME280;6186;52.022;4.692;2023-06-01T07:25:04;102523.00;;;15.08;92.82
12247;BME280;6186;52.022;4.692;2023-06-01T07:27:30;102513.31;;;15.07;92.94
12247;BME280;6186;52.022;4.692;2023-06-01T07:29:55;102517.72;;;15.10;93.16
12247;BME280;6186;52.022;4.692;2023-06-01T07:32:24;102528.22;;;15.15;93.32
12247;BME280;6186;52.022;4.692;2023-06-01T07:34:49;102532.56;;;15.19;93.68
12247;BME280;6186;52.022;4.692;2023-06-01T07:37:15;102535.97;;;15.27;94.13
12247;BME280;6186;52.022;4.692;2023-06-01T07:39:40;102536.63;;;15.39;94.76
12247;BME280;6186;52.022;4.692;2023-06-01T07:42:05;102526.72;;;15.52;95.05
12247;BME280;6186;52.022;4.692;2023-06-01T07:44:30;102521.22;;;15.61;95.42
12247;BME280;6186;52.022;4.692;2023-06-01T07:46:56;102531.69;;;15.68;95.53
12247;BME280;6186;52.022;4.692;2023-06-01T07:49:21;102536.88;;;15.76;95.90
12247;BME280;6186;52.022;4.692;2023-06-01T07:51:46;102532.34;;;15.79;95.61
12247;BME280;6186;52.022;4.692;2023-06-01T07:54:11;102527.06;;;15.79;95.43
12247;BME280;6186;52.022;4.692;2023-06-01T07:56:37;102522.63;;;15.80;95.27
12247;BME280;6186;52.022;4.692;2023-06-01T07:59:02;102527.00;;;15.81;95.50
12247;BME280;6186;52.022;4.692;2023-06-01T08:01:28;102518.84;;;15.90;96.23
12247;BME280;6186;52.022;4.692;2023-06-01T08:03:53;102521.31;;;16.00;96.82
12247;BME280;6186;52.022;4.692;2023-06-01T08:06:18;102518.25;;;16.19;97.40
12247;BME280;6186;52.022;4.692;2023-06-01T08:08:44;102521.53;;;16.31;97.53
12247;BME280;6186;52.022;4.692;2023-06-01T08:11:09;102512.47;;;16.40;97.60
12247;BME280;6186;52.022;4.692;2023-06-01T08:13:35;102514.91;;;16.52;98.06
12247;BME280;6186;52.022;4.692;2023-06-01T08:16:00;102514.53;;;16.67;98.56
12247;BME280;6186;52.022;4.692;2023-06-01T08:18:25;102502.78;;;16.75;98.54
12247;BME280;6186;52.022;4.692;2023-06-01T08:20:50;102511.28;;;16.91;99.60
12247;BME280;6186;52.022;4.692;2023-06-01T08:23:15;102516.16;;;17.08;99.43
12247;BME280;6186;52.022;4.692;2023-06-01T08:25:41;102512.53;;;17.12;99.30
12247;BME280;6186;52.022;4.692;2023-06-01T08:28:06;102508.56;;;17.28;100.00
12247;BME280;6186;52.022;4.692;2023-06-01T08:30:31;102511.59;;;17.48;100.00
12247;BME280;6186;52.022;4.692;2023-06-01T08:32:56;102500.56;;;17.61;100.00
12247;BME280;6186;52.022;4.692;2023-06-01T08:35:21;102501.09;;;17.74;100.00
12247;BME280;6186;52.022;4.692;2023-06-01T08:37:47;102508.63;;;17.89;100.00
12247;BME280;6186;52.022;4.692;2023-06-01T08:40:12;102503.31;;;17.89;99.26
12247;BME280;6186;52.022;4.692;2023-06-01T08:42:57;102505.91;;;17.92;99.27
12247;BME280;6186;52.022;4.692;2023-06-01T08:45:24;102509.28;;;17.97;99.36
12247;BME280;6186;52.022;4.692;2023-06-01T08:47:52;102513.53;;;18.04;99.38
12247;BME280;6186;52.022;4.692;2023-06-01T08:50:18;102515.78;;;18.18;99.69
12247;BME280;6186;52.022;4.692;2023-06-01T08:52:45;102508.28;;;18.30;99.76
12247;BME280;6186;52.022;4.692;2023-06-01T08:55:13;102501.81;;;18.39;99.53
12247;BME280;6186;52.022;4.692;2023-06-01T08:57:41;102503.25;;;18.50;99.65
12247;BME280;6186;52.022;4.692;2023-06-01T09:00:10;102493.63;;;18.72;100.00
12247;BME280;6186;52.022;4.692;2023-06-01T09:02:35;102494.91;;;18.89;100.00
12247;BME280;6186;52.022;4.692;2023-06-01T09:05:01;102480.59;;;18.90;99.87
12247;BME280;6186;52.022;4.692;2023-06-01T09:07:26;102481.84;;;19.06;100.00
12247;BME280;6186;52.022;4.692;2023-06-01T09:09:52;102489.53;;;19.15;99.77
12247;BME280;6186;52.022;4.692;2023-06-01T09:14:45;102486.72;;;19.44;100.00
12247;BME280;6186;52.022;4.692;2023-06-01T09:17:15;102486.66;;;19.47;99.35
12247;BME280;6186;52.022;4.692;2023-06-01T09:19:45;102482.88;;;19.52;99.65
12247;BME280;6186;52.022;4.692;2023-06-01T09:22:11;102484.34;;;19.61;99.25
12247;BME280;6186;52.022;4.692;2023-06-01T09:24:36;102479.72;;;19.66;98.99
12247;BME280;6186;52.022;4.692;2023-06-01T09:27:02;102471.63;;;19.67;98.35
12247;BME280;6186;52.022;4.692;2023-06-01T09:29:27;102468.75;;;19.74;98.75
12247;BME280;6186;52.022;4.692;2023-06-01T09:31:52;102480.53;;;19.91;99.13
12247;BME280;6186;52.022;4.692;2023-06-01T09:34:19;102470.34;;;20.01;99.26
12247;BME280;6186;52.022;4.692;2023-06-01T09:39:13;102470.19;;;20.28;99.85
12247;BME280;6186;52.022;4.692;2023-06-01T09:41:48;102465.25;;;20.63;100.00
12247;BME280;6186;52.022;4.692;2023-06-01T09:44:14;102465.13;;;20.86;100.00
12247;BME280;6186;52.022;4.692;2023-06-01T09:46:51;102471.97;;;21.14;100.00
12247;BME280;6186;52.022;4.692;2023-06-01T09:49:24;102469.16;;;21.37;100.00
12247;BME280;6186;52.022;4.692;2023-06-01T09:51:50;102459.91;;;21.44;100.00
12247;BME280;6186;52.022;4.692;2023-06-01T09:54:26;102464.56;;;21.60;100.00
12247;BME280;6186;52.022;4.692;2023-06-01T09:56:52;102457.16;;;21.66;99.96
12247;BME280;6186;52.022;4.692;2023-06-01T09:59:19;102448.81;;;21.53;99.12
12247;BME280;6186;52.022;4.692;2023-06-01T10:01:53;102465.94;;;21.49;97.54
12247;BME280;6186;52.022;4.692;2023-06-01T10:04:21;102462.47;;;21.47;97.74
12247;BME280;6186;52.022;4.692;2023-06-01T10:06:46;102468.13;;;21.60;98.72
12247;BME280;6186;52.022;4.692;2023-06-01T10:09:13;102469.53;;;21.69;98.73
12247;BME280;6186;52.022;4.692;2023-06-01T10:11:38;102457.41;;;21.80;98.72
12247;BME280;6186;52.022;4.692;2023-06-01T10:14:04;102460.41;;;21.93;99.30
12247;BME280;6186;52.022;4.692;2023-06-01T10:16:29;102455.41;;;22.04;98.58
12247;BME280;6186;52.022;4.692;2023-06-01T10:18:55;102452.78;;;22.02;97.44
12247;BME280;6186;52.022;4.692;2023-06-01T10:21:21;102448.31;;;22.03;96.99
12247;BME280;6186;52.022;4.692;2023-06-01T10:23:46;102447.34;;;22.04;96.72
12247;BME280;6186;52.022;4.692;2023-06-01T10:26:14;102453.22;;;22.12;96.66
12247;BME280;6186;52.022;4.692;2023-06-01T10:28:40;102452.59;;;22.25;96.97
12247;BME280;6186;52.022;4.692;2023-06-01T10:31:35;102452.03;;;22.36;95.95
12247;BME280;6186;52.022;4.692;2023-06-01T10:34:00;102449.38;;;22.36;94.79
12247;BME280;6186;52.022;4.692;2023-06-01T10:41:56;102449.78;;;22.64;94.43
12247;BME280;6186;52.022;4.692;2023-06-01T10:52:30;102441.53;;;23.03;92.83
12247;BME280;6186;52.022;4.692;2023-06-01T10:57:31;102431.41;;;22.91;90.17
12247;BME280;6186;52.022;4.692;2023-06-01T11:13:27;102436.91;;;23.56;88.83
12247;BME280;6186;52.022;4.692;2023-06-01T11:21:05;102431.19;;;23.62;88.55
12247;BME280;6186;52.022;4.692;2023-06-01T11:23:31;102418.38;;;23.67;88.21
12247;BME280;6186;52.022;4.692;2023-06-01T11:25:59;102431.66;;;23.70;87.45
12247;BME280;6186;52.022;4.692;2023-06-01T11:28:26;102426.34;;;23.69;87.07
12247;BME280;6186;52.022;4.692;2023-06-01T11:30:52;102432.25;;;23.75;87.20
12247;BME280;6186;52.022;4.692;2023-06-01T11:33:19;102430.91;;;23.84;86.98
12247;BME280;6186;52.022;4.692;2023-06-01T11:35:44;102421.34;;;23.78;85.67
12247;BME280;6186;52.022;4.692;2023-06-01T11:38:09;102420.47;;;23.78;85.64
12247;BME280;6186;52.022;4.692;2023-06-01T11:40:36;102421.00;;;23.84;85.57
12247;BME280;6186;52.022;4.692;2023-06-01T11:43:01;102423.75;;;23.83;85.03
12247;BME280;6186;52.022;4.692;2023-06-01T11:45:26;102430.34;;;23.77;83.90
12247;BME280;6186;52.022;4.692;2023-06-01T11:47:51;102426.19;;;23.72;83.80
12247;BME280;6186;52.022;4.692;2023-06-01T11:50:22;102424.19;;;23.75;83.65
12247;BME280;6186;52.022;4.692;2023-06-01T11:52:47;102416.91;;;23.77;83.13
12247;BME280;6186;52.022;4.692;2023-06-01T11:55:12;102409.47;;;23.82;82.98
12247;BME280;6186;52.022;4.692;2023-06-01T11:57:42;102411.97;;;23.85;82.79
12247;BME280;6186;52.022;4.692;2023-06-01T12:00:10;102411.22;;;23.99;83.10
12247;BME280;6186;52.022;4.692;2023-06-01T12:02:36;102401.34;;;24.15;83.42
12247;BME280;6186;52.022;4.692;2023-06-01T12:05:03;102401.28;;;24.16;82.06
12247;BME280;6186;52.022;4.692;2023-06-01T12:07:29;102411.59;;;24.08;81.11
12247;BME280;6186;52.022;4.692;2023-06-01T12:09:55;102400.66;;;24.11;81.94
12247;BME280;6186;52.022;4.692;2023-06-01T12:12:23;102408.03;;;24.23;81.47
12247;BME280;6186;52.022;4.692;2023-06-01T12:14:48;102405.44;;;24.22;80.92
12247;BME280;6186;52.022;4.692;2023-06-01T12:17:14;102415.22;;;24.23;80.59
12247;BME280;6186;52.022;4.692;2023-06-01T12:19:46;102412.53;;;24.23;80.15
12247;BME280;6186;52.022;4.692;2023-06-01T12:22:11;102405.03;;;24.44;81.47
12247;BME280;6186;52.022;4.692;2023-06-01T12:24:37;102409.31;;;24.48;80.17
12247;BME280;6186;52.022;4.692;2023-06-01T12:27:15;102409.66;;;24.42;79.32
12247;BME280;6186;52.022;4.692;2023-06-01T12:29:45;102414.53;;;24.35;78.89
12247;BME280;6186;52.022;4.692;2023-06-01T12:32:11;102416.59;;;24.30;78.44
12247;BME280;6186;52.022;4.692;2023-06-01T12:34:38;102415.66;;;24.31;78.73
12247;BME280;6186;52.022;4.692;2023-06-01T12:37:17;102413.56;;;24.36;79.01
12247;BME280;6186;52.022;4.692;2023-06-01T12:39:43;102416.00;;;24.41;78.44
12247;BME280;6186;52.022;4.692;2023-06-01T12:42:09;102417.13;;;24.37;77.99
12247;BME280;6186;52.022;4.692;2023-06-01T12:44:35;102406.13;;;24.41;78.22
12247;BME280;6186;52.022;4.692;2023-06-01T12:47:00;102409.59;;;24.43;77.83
12247;BME280;6186;52.022;4.692;2023-06-01T12:49:25;102415.03;;;24.42;77.74
12247;BME280;6186;52.022;4.692;2023-06-01T12:51:51;102397.25;;;24.39;77.08
12247;BME280;6186;52.022;4.692;2023-06-01T12:54:16;102400.44;;;24.46;77.43
12247;BME280;6186;52.022;4.692;2023-06-01T12:56:41;102399.16;;;24.53;77.37
12247;BME280;6186;52.022;4.692;2023-06-01T12:59:07;102399.22;;;24.51;76.60
12247;BME280;6186;52.022;4.692;2023-06-01T13:01:32;102391.69;;;24.42;75.89
12247;BME280;6186;52.022;4.692;2023-06-01T13:03:57;102399.66;;;24.44;75.24
12247;BME280;6186;52.022;4.692;2023-06-01T13:06:22;102394.31;;;24.28;74.34
12247;BME280;6186;52.022;4.692;2023-06-01T13:08:48;102396.47;;;24.21;74.37
12247;BME280;6186;52.022;4.692;2023-06-01T13:11:13;102393.44;;;24.27;75.30
12247;BME280;6186;52.022;4.692;2023-06-01T13:13:38;102387.00;;;24.30;74.50
12247;BME280;6186;52.022;4.692;2023-06-01T13:16:04;102397.50;;;24.19;73.52
12247;BME280;6186;52.022;4.692;2023-06-01T13:18:29;102389.47;;;24.03;73.25
12247;BME280;6186;52.022;4.692;2023-06-01T13:20:54;102392.91;;;24.05;73.76
12247;BME280;6186;52.022;4.692;2023-06-01T13:23:20;102397.66;;;24.00;73.11
12247;BME280;6186;52.022;4.692;2023-06-01T13:25:45;102401.81;;;23.90;72.78
12247;BME280;6186;52.022;4.692;2023-06-01T13:28:10;102400.53;;;23.82;72.65
12247;BME280;6186;52.022;4.692;2023-06-01T13:30:36;102401.81;;;23.90;73.02
12247;BME280;6186;52.022;4.692;2023-06-01T13:33:01;102407.63;;;23.83;72.72
12247;BME280;6186;52.022;4.692;2023-06-01T13:35:27;102410.38;;;23.66;71.31
12247;BME280;6186;52.022;4.692;2023-06-01T13:37:52;102408.88;;;23.60;72.22
12247;BME280;6186;52.022;4.692;2023-06-01T13:40:17;102406.06;;;23.63;72.45